sensor_id;sensor_type;location;lat;lon;timestamp;P1;durP1;ratioP1;P2;durP2;ratioP2
4486;SDS011;2256;48.740;9.106;2023-05-10T00:00:17;1.10;;;1.00;;
4486;SDS011;2256;48.740;9.106;2023-05-10T00:02:43;1.30;;;1.20;;
4486;SDS011;2256;48.740;9.106;2023-05-10T00:05:10;1.40;;;1.03;;
4486;SDS011;2256;48.740;9.106;2023-05-10T00:07:38;1.03;;;0.93;;
4486;SDS011;2256;48.740;9.106;2023-05-10T00:10:06;1.33;;;1.23;;
4486;SDS011;2256;48.740;9.106;2023-05-10T00:12:33;1.00;;;0.97;;
4486;SDS011;2256;48.740;9.106;2023-05-10T00:15:00;0.83;;;0.83;;
4486;SDS011;2256;48.740;9.106;2023-05-10T00:17:28;1.20;;;1.00;;
4486;SDS011;2256;48.740;9.106;2023-05-10T00:19:55;0.80;;;0.80;;
4486;SDS011;2256;48.740;9.106;2023-05-10T00:22:21;0.80;;;0.80;;
4486;SDS011;2256;48.740;9.106;2023-05-10T00:24:50;1.40;;;0.90;;
4486;SDS011;2256;48.740;9.106;2023-05-10T00:27:16;0.83;;;0.83;;
4486;SDS011;2256;48.740;9.106;2023-05-10T00:29:43;2.17;;;1.00;;
4486;SDS011;2256;48.740;9.106;2023-05-10T00:32:10;0.90;;;0.90;;
4486;SDS011;2256;48.740;9.106;2023-05-10T00:34:39;0.80;;;0.80;;
4486;SDS011;2256;48.740;9.106;2023-05-10T00:37:05;0.70;;;0.70;;
4486;SDS011;2256;48.740;9.106;2023-05-10T00:39:32;0.80;;;0.80;;
4486;SDS011;2256;48.740;9.106;2023-05-10T00:42:00;1.07;;;0.97;;
4486;SDS011;2256;48.740;9.106;2023-05-10T00:44:27;0.70;;;0.70;;
4486;SDS011;2256;48.740;9.106;2023-05-10T00:46:54;0.80;;;0.80;;
4486;SDS011;2256;48.740;9.106;2023-05-10T00:49:21;1.10;;;1.00;;
4486;SDS011;2256;48.740;9.106;2023-05-10T00:51:48;0.80;;;0.80;;
4486;SDS011;2256;48.740;9.106;2023-05-10T00:54:15;0.70;;;0.70;;
4486;SDS011;2256;48.740;9.106;2023-05-10T00:56:42;4.77;;;0.80;;
4486;SDS011;2256;48.740;9.106;2023-05-10T00:59:14;0.70;;;0.70;;
4486;SDS011;2256;48.740;9.106;2023-05-10T01:01:42;0.77;;;0.77;;
4486;SDS011;2256;48.740;9.106;2023-05-10T01:04:10;0.70;;;0.70;;
4486;SDS011;2256;48.740;9.106;2023-05-10T01:06:38;0.70;;;0.70;;
4486;SDS011;2256;48.740;9.106;2023-05-10T01:09:05;0.90;;;0.80;;
4486;SDS011;2256;48.740;9.106;2023-05-10T01:11:31;1.13;;;0.83;;
4486;SDS011;2256;48.740;9.106;2023-05-10T01:13:59;0.80;;;0.80;;
4486;SDS011;2256;48.740;9.106;2023-05-10T01:16:27;0.80;;;0.80;;
4486;SDS011;2256;48.740;9.106;2023-05-10T01:18:55;0.70;;;0.70;;
4486;SDS011;2256;48.740;9.106;2023-05-10T01:21:23;0.70;;;0.70;;
4486;SDS011;2256;48.740;9.106;2023-05-10T01:24:06;0.90;;;0.90;;
4486;SDS011;2256;48.740;9.106;2023-05-10T01:32:44;0.80;;;0.80;;
4486;SDS011;2256;48.740;9.106;2023-05-10T01:35:19;1.03;;;1.03;;
4486;SDS011;2256;48.740;9.106;2023-05-10T01:37:52;2.40;;;1.10;;
4486;SDS011;2256;48.740;9.106;2023-05-10T01:40:26;0.80;;;0.80;;
4486;SDS011;2256;48.740;9.106;2023-05-10T01:42:59;0.90;;;0.80;;
4486;SDS011;2256;48.740;9.106;2023-05-10T01:45:31;0.80;;;0.80;;
4486;SDS011;2256;48.740;9.106;2023-05-10T01:48:05;0.80;;;0.80;;
4486;SDS011;2256;48.740;9.106;2023-05-10T01:50:34;0.70;;;0.70;;
4486;SDS011;2256;48.740;9.106;2023-05-10T01:53:05;0.80;;;0.80;;
4486;SDS011;2256;48.740;9.106;2023-05-10T01:55:35;0.80;;;0.80;;
4486;SDS011;2256;48.740;9.106;2023-05-10T01:58:09;0.70;;;0.70;;
4486;SDS011;2256;48.740;9.106;2023-05-10T02:00:40;0.80;;;0.80;;
4486;SDS011;2256;48.740;9.106;2023-05-10T02:03:10;0.70;;;0.70;;
4486;SDS011;2256;48.740;9.106;2023-05-10T02:05:38;0.70;;;0.70;;
4486;SDS011;2256;48.740;9.106;2023-05-10T02:08:08;0.87;;;0.77;;
4486;SDS011;2256;48.740;9.106;2023-05-10T02:10:35;1.07;;;0.83;;
4486;SDS011;2256;48.740;9.106;2023-05-10T02:13:03;0.70;;;0.70;;
4486;SDS011;2256;48.740;9.106;2023-05-10T02:15:32;2.40;;;0.90;;
4486;SDS011;2256;48.740;9.106;2023-05-10T02:18:01;0.80;;;0.80;;
4486;SDS011;2256;48.740;9.106;2023-05-10T02:20:32;6.13;;;0.80;;
4486;SDS011;2256;48.740;9.106;2023-05-10T02:23:00;0.80;;;0.80;;
4486;SDS011;2256;48.740;9.106;2023-05-10T02:25:27;0.87;;;0.87;;
4486;SDS011;2256;48.740;9.106;2023-05-10T02:27:55;1.97;;;1.10;;
4486;SDS011;2256;48.740;9.106;2023-05-10T02:30:24;1.00;;;1.00;;
4486;SDS011;2256;48.740;9.106;2023-05-10T02:32:52;0.83;;;0.83;;
4486;SDS011;2256;48.740;9.106;2023-05-10T02:35:19;0.90;;;0.90;;
4486;SDS011;2256;48.740;9.106;2023-05-10T02:37:48;1.20;;;0.80;;
4486;SDS011;2256;48.740;9.106;2023-05-10T02:40:16;0.90;;;0.90;;
4486;SDS011;2256;48.740;9.106;2023-05-10T02:42:45;0.90;;;0.90;;
4486;SDS011;2256;48.740;9.106;2023-05-10T02:45:15;0.90;;;0.90;;
4486;SDS011;2256;48.740;9.106;2023-05-10T02:47:45;0.90;;;0.90;;
4486;SDS011;2256;48.740;9.106;2023-05-10T02:50:12;0.87;;;0.83;;
4486;SDS011;2256;48.740;9.106;2023-05-10T02:52:40;1.00;;;1.00;;
4486;SDS011;2256;48.740;9.106;2023-05-10T02:55:12;0.90;;;0.90;;
4486;SDS011;2256;48.740;9.106;2023-05-10T02:57:42;1.00;;;1.00;;
4486;SDS011;2256;48.740;9.106;2023-05-10T03:00:13;1.53;;;0.90;;
4486;SDS011;2256;48.740;9.106;2023-05-10T03:02:40;1.17;;;1.10;;
4486;SDS011;2256;48.740;9.106;2023-05-10T03:05:07;1.30;;;1.20;;
4486;SDS011;2256;48.740;9.106;2023-05-10T03:07:34;1.00;;;1.00;;
4486;SDS011;2256;48.740;9.106;2023-05-10T03:10:05;0.90;;;0.90;;
4486;SDS011;2256;48.740;9.106;2023-05-10T03:12:37;1.10;;;1.10;;
4486;SDS011;2256;48.740;9.106;2023-05-10T03:15:14;1.13;;;1.03;;
4486;SDS011;2256;48.740;9.106;2023-05-10T03:17:52;1.20;;;1.10;;
4486;SDS011;2256;48.740;9.106;2023-05-10T03:20:24;1.50;;;1.40;;
4486;SDS011;2256;48.740;9.106;2023-05-10T03:22:55;1.37;;;1.10;;
4486;SDS011;2256;48.740;9.106;2023-05-10T03:25:28;1.50;;;1.40;;
4486;SDS011;2256;48.740;9.106;2023-05-10T03:27:58;5.80;;;1.27;;
4486;SDS011;2256;48.740;9.106;2023-05-10T03:30:27;1.43;;;1.30;;
4486;SDS011;2256;48.740;9.106;2023-05-10T03:32:55;1.60;;;1.50;;
4486;SDS011;2256;48.740;9.106;2023-05-10T03:35:22;4.20;;;1.30;;
4486;SDS011;2256;48.740;9.106;2023-05-10T03:37:50;1.30;;;1.20;;
4486;SDS011;2256;48.740;9.106;2023-05-10T03:40:16;1.73;;;1.30;;
4486;SDS011;2256;48.740;9.106;2023-05-10T03:42:43;1.93;;;1.40;;
4486;SDS011;2256;48.740;9.106;2023-05-10T03:45:11;1.73;;;1.37;;
4486;SDS011;2256;48.740;9.106;2023-05-10T03:47:38;1.60;;;1.30;;
4486;SDS011;2256;48.740;9.106;2023-05-10T03:50:06;1.87;;;1.67;;
4486;SDS011;2256;48.740;9.106;2023-05-10T03:52:33;3.17;;;2.43;;
4486;SDS011;2256;48.740;9.106;2023-05-10T03:55:00;1.90;;;1.40;;
4486;SDS011;2256;48.740;9.106;2023-05-10T03:57:28;1.60;;;1.40;;
4486;SDS011;2256;48.740;9.106;2023-05-10T03:59:55;1.23;;;1.10;;
4486;SDS011;2256;48.740;9.106;2023-05-10T04:02:23;2.33;;;1.30;;
4486;SDS011;2256;48.740;9.106;2023-05-10T04:04:50;1.63;;;1.50;;
4486;SDS011;2256;48.740;9.106;2023-05-10T04:07:17;1.90;;;1.40;;
4486;SDS011;2256;48.740;9.106;2023-05-10T04:09:44;4.40;;;1.40;;
4486;SDS011;2256;48.740;9.106;2023-05-10T04:12:11;1.43;;;1.30;;
4486;SDS011;2256;48.740;9.106;2023-05-10T04:14:37;3.87;;;1.20;;
4486;SDS011;2256;48.740;9.106;2023-05-10T04:17:04;1.80;;;1.50;;
4486;SDS011;2256;48.740;9.106;2023-05-10T04:19:32;2.20;;;1.20;;
4486;SDS011;2256;48.740;9.106;2023-05-10T04:21:59;2.30;;;1.20;;
4486;SDS011;2256;48.740;9.106;2023-05-10T04:24:28;1.50;;;1.40;;
4486;SDS011;2256;48.740;9.106;2023-05-10T04:26:55;1.37;;;1.27;;
4486;SDS011;2256;48.740;9.106;2023-05-10T04:29:21;3.43;;;1.37;;
4486;SDS011;2256;48.740;9.106;2023-05-10T04:31:48;1.40;;;1.30;;
4486;SDS011;2256;48.740;9.106;2023-05-10T04:34:15;1.43;;;1.33;;
4486;SDS011;2256;48.740;9.106;2023-05-10T04:36:44;4.17;;;1.37;;
4486;SDS011;2256;48.740;9.106;2023-05-10T04:39:10;1.63;;;1.53;;
4486;SDS011;2256;48.740;9.106;2023-05-10T04:41:38;1.43;;;1.33;;
4486;SDS011;2256;48.740;9.106;2023-05-10T04:44:05;1.57;;;1.47;;
4486;SDS011;2256;48.740;9.106;2023-05-10T04:46:32;13.83;;;1.50;;
4486;SDS011;2256;48.740;9.106;2023-05-10T04:48:58;2.00;;;1.40;;
4486;SDS011;2256;48.740;9.106;2023-05-10T04:51:26;1.57;;;1.47;;
4486;SDS011;2256;48.740;9.106;2023-05-10T04:53:54;2.10;;;1.77;;
4486;SDS011;2256;48.740;9.106;2023-05-10T04:56:20;2.40;;;1.87;;
4486;SDS011;2256;48.740;9.106;2023-05-10T04:58:47;4.20;;;1.67;;
4486;SDS011;2256;48.740;9.106;2023-05-10T05:01:14;2.10;;;1.90;;
4486;SDS011;2256;48.740;9.106;2023-05-10T05:03:41;1.87;;;1.60;;
4486;SDS011;2256;48.740;9.106;2023-05-10T05:06:08;6.23;;;1.83;;
4486;SDS011;2256;48.740;9.106;2023-05-10T05:08:35;2.37;;;1.93;;
4486;SDS011;2256;48.740;9.106;2023-05-10T05:11:03;2.60;;;1.70;;
4486;SDS011;2256;48.740;9.106;2023-05-10T05:13:30;2.13;;;1.70;;
4486;SDS011;2256;48.740;9.106;2023-05-10T05:15:57;1.57;;;1.47;;
4486;SDS011;2256;48.740;9.106;2023-05-10T05:18:26;4.23;;;2.03;;
4486;SDS011;2256;48.740;9.106;2023-05-10T05:20:53;6.30;;;1.60;;
4486;SDS011;2256;48.740;9.106;2023-05-10T05:23:19;2.27;;;1.90;;
4486;SDS011;2256;48.740;9.106;2023-05-10T05:25:49;2.43;;;1.70;;
4486;SDS011;2256;48.740;9.106;2023-05-10T05:28:19;1.70;;;1.60;;
4486;SDS011;2256;48.740;9.106;2023-05-10T05:30:45;2.30;;;1.87;;
4486;SDS011;2256;48.740;9.106;2023-05-10T05:33:12;6.60;;;2.40;;
4486;SDS011;2256;48.740;9.106;2023-05-10T05:35:40;2.13;;;1.70;;
4486;SDS011;2256;48.740;9.106;2023-05-10T05:38:07;2.73;;;1.77;;
4486;SDS011;2256;48.740;9.106;2023-05-10T05:40:34;3.20;;;1.40;;
4486;SDS011;2256;48.740;9.106;2023-05-10T05:43:01;1.73;;;1.63;;
4486;SDS011;2256;48.740;9.106;2023-05-10T05:45:29;1.93;;;1.83;;
4486;SDS011;2256;48.740;9.106;2023-05-10T05:47:56;3.47;;;1.73;;
4486;SDS011;2256;48.740;9.106;2023-05-10T05:50:23;1.97;;;1.77;;
4486;SDS011;2256;48.740;9.106;2023-05-10T05:52:50;2.67;;;1.60;;
4486;SDS011;2256;48.740;9.106;2023-05-10T05:55:17;1.97;;;1.87;;
4486;SDS011;2256;48.740;9.106;2023-05-10T05:57:44;1.30;;;1.20;;
4486;SDS011;2256;48.740;9.106;2023-05-10T06:00:11;2.13;;;1.93;;
4486;SDS011;2256;48.740;9.106;2023-05-10T06:02:40;1.63;;;1.50;;
4486;SDS011;2256;48.740;9.106;2023-05-10T06:05:08;2.43;;;1.30;;
4486;SDS011;2256;48.740;9.106;2023-05-10T06:07:34;1.90;;;1.80;;
4486;SDS011;2256;48.740;9.106;2023-05-10T06:10:01;1.97;;;1.87;;
4486;SDS011;2256;48.740;9.106;2023-05-10T06:12:28;3.23;;;1.93;;
4486;SDS011;2256;48.740;9.106;2023-05-10T06:14:55;1.70;;;1.43;;
4486;SDS011;2256;48.740;9.106;2023-05-10T06:17:22;3.30;;;1.97;;
4486;SDS011;2256;48.740;9.106;2023-05-10T06:19:50;2.07;;;1.70;;
4486;SDS011;2256;48.740;9.106;2023-05-10T06:22:17;3.40;;;1.60;;
4486;SDS011;2256;48.740;9.106;2023-05-10T06:24:44;2.20;;;1.83;;
4486;SDS011;2256;48.740;9.106;2023-05-10T06:27:11;3.63;;;1.63;;
4486;SDS011;2256;48.740;9.106;2023-05-10T06:29:38;2.80;;;1.30;;
4486;SDS011;2256;48.740;9.106;2023-05-10T06:32:07;2.97;;;1.60;;
4486;SDS011;2256;48.740;9.106;2023-05-10T06:34:34;1.70;;;1.60;;
4486;SDS011;2256;48.740;9.106;2023-05-10T06:37:03;2.13;;;1.60;;
4486;SDS011;2256;48.740;9.106;2023-05-10T06:39:30;2.70;;;1.50;;
4486;SDS011;2256;48.740;9.106;2023-05-10T06:41:57;3.23;;;1.90;;
4486;SDS011;2256;48.740;9.106;2023-05-10T06:44:23;1.80;;;1.60;;
4486;SDS011;2256;48.740;9.106;2023-05-10T06:46:50;3.40;;;2.47;;
4486;SDS011;2256;48.740;9.106;2023-05-10T06:49:18;1.83;;;1.70;;
4486;SDS011;2256;48.740;9.106;2023-05-10T06:51:45;1.70;;;1.60;;
4486;SDS011;2256;48.740;9.106;2023-05-10T06:54:13;1.50;;;1.40;;
4486;SDS011;2256;48.740;9.106;2023-05-10T06:56:40;3.83;;;1.90;;
4486;SDS011;2256;48.740;9.106;2023-05-10T06:59:07;1.53;;;1.43;;
4486;SDS011;2256;48.740;9.106;2023-05-10T07:01:34;1.40;;;1.30;;
4486;SDS011;2256;48.740;9.106;2023-05-10T07:04:01;4.10;;;1.97;;
4486;SDS011;2256;48.740;9.106;2023-05-10T07:06:28;2.93;;;1.83;;
4486;SDS011;2256;48.740;9.106;2023-05-10T07:08:54;9.83;;;3.07;;
4486;SDS011;2256;48.740;9.106;2023-05-10T07:11:23;4.20;;;2.13;;
4486;SDS011;2256;48.740;9.106;2023-05-10T07:13:50;3.40;;;1.73;;
4486;SDS011;2256;48.740;9.106;2023-05-10T07:16:18;2.47;;;2.00;;
4486;SDS011;2256;48.740;9.106;2023-05-10T07:18:46;5.40;;;2.17;;
4486;SDS011;2256;48.740;9.106;2023-05-10T07:21:13;3.77;;;1.70;;
4486;SDS011;2256;48.740;9.106;2023-05-10T07:23:40;3.17;;;1.93;;
4486;SDS011;2256;48.740;9.106;2023-05-10T07:26:07;6.10;;;1.50;;
4486;SDS011;2256;48.740;9.106;2023-05-10T07:28:36;2.27;;;1.83;;
4486;SDS011;2256;48.740;9.106;2023-05-10T07:31:04;1.53;;;1.43;;
4486;SDS011;2256;48.740;9.106;2023-05-10T07:33:30;1.50;;;1.40;;
4486;SDS011;2256;48.740;9.106;2023-05-10T07:35:57;1.60;;;1.50;;
4486;SDS011;2256;48.740;9.106;2023-05-10T07:38:24;1.23;;;1.13;;
4486;SDS011;2256;48.740;9.106;2023-05-10T07:40:51;2.00;;;1.23;;
4486;SDS011;2256;48.740;9.106;2023-05-10T07:43:17;2.83;;;1.70;;
4486;SDS011;2256;48.740;9.106;2023-05-10T07:45:45;1.47;;;1.37;;
4486;SDS011;2256;48.740;9.106;2023-05-10T07:48:12;1.50;;;1.30;;
4486;SDS011;2256;48.740;9.106;2023-05-10T07:50:39;1.40;;;1.30;;
4486;SDS011;2256;48.740;9.106;2023-05-10T07:53:06;2.07;;;1.07;;
4486;SDS011;2256;48.740;9.106;2023-05-10T07:55:33;1.20;;;0.90;;
4486;SDS011;2256;48.740;9.106;2023-05-10T07:58:00;1.07;;;1.07;;
4486;SDS011;2256;48.740;9.106;2023-05-10T08:00:27;1.60;;;1.40;;
4486;SDS011;2256;48.740;9.106;2023-05-10T08:02:55;1.10;;;1.00;;
4486;SDS011;2256;48.740;9.106;2023-05-10T08:05:22;1.23;;;1.13;;
4486;SDS011;2256;48.740;9.106;2023-05-10T08:07:48;1.30;;;1.00;;
4486;SDS011;2256;48.740;9.106;2023-05-10T08:10:15;1.23;;;1.13;;
4486;SDS011;2256;48.740;9.106;2023-05-10T08:12:42;1.87;;;1.00;;
4486;SDS011;2256;48.740;9.106;2023-05-10T08:15:09;1.23;;;1.13;;
4486;SDS011;2256;48.740;9.106;2023-05-10T08:17:36;1.00;;;1.00;;
4486;SDS011;2256;48.740;9.106;2023-05-10T08:20:06;1.87;;;1.10;;
4486;SDS011;2256;48.740;9.106;2023-05-10T08:22:33;1.83;;;1.00;;
4486;SDS011;2256;48.740;9.106;2023-05-10T08:25:00;2.00;;;1.40;;
4486;SDS011;2256;48.740;9.106;2023-05-10T08:27:26;3.00;;;2.07;;
4486;SDS011;2256;48.740;9.106;2023-05-10T08:29:53;1.37;;;1.07;;
4486;SDS011;2256;48.740;9.106;2023-05-10T08:32:20;0.90;;;0.90;;
4486;SDS011;2256;48.740;9.106;2023-05-10T08:34:47;1.57;;;1.13;;
4486;SDS011;2256;48.740;9.106;2023-05-10T08:37:15;0.90;;;0.90;;
4486;SDS011;2256;48.740;9.106;2023-05-10T08:39:41;1.13;;;1.03;;
4486;SDS011;2256;48.740;9.106;2023-05-10T08:42:08;1.37;;;1.00;;
4486;SDS011;2256;48.740;9.106;2023-05-10T08:44:35;0.90;;;0.90;;
4486;SDS011;2256;48.740;9.106;2023-05-10T08:47:04;7.90;;;1.00;;
4486;SDS011;2256;48.740;9.106;2023-05-10T08:49:32;1.27;;;1.17;;
4486;SDS011;2256;48.740;9.106;2023-05-10T08:51:59;1.13;;;1.03;;
4486;SDS011;2256;48.740;9.106;2023-05-10T08:54:30;1.30;;;1.20;;
4486;SDS011;2256;48.740;9.106;2023-05-10T08:56:58;2.20;;;1.00;;
4486;SDS011;2256;48.740;9.106;2023-05-10T08:59:25;3.33;;;0.97;;
4486;SDS011;2256;48.740;9.106;2023-05-10T09:01:52;1.73;;;0.90;;
4486;SDS011;2256;48.740;9.106;2023-05-10T09:04:19;1.03;;;0.90;;
4486;SDS011;2256;48.740;9.106;2023-05-10T09:06:47;1.30;;;1.20;;
4486;SDS011;2256;48.740;9.106;2023-05-10T09:09:13;2.10;;;1.00;;
4486;SDS011;2256;48.740;9.106;2023-05-10T09:11:43;1.33;;;1.10;;
4486;SDS011;2256;48.740;9.106;2023-05-10T09:14:10;0.80;;;0.80;;
4486;SDS011;2256;48.740;9.106;2023-05-10T09:16:39;1.00;;;1.00;;
4486;SDS011;2256;48.740;9.106;2023-05-10T09:19:07;1.00;;;0.90;;
4486;SDS011;2256;48.740;9.106;2023-05-10T09:21:35;1.40;;;1.13;;
4486;SDS011;2256;48.740;9.106;2023-05-10T09:24:03;1.47;;;1.10;;
4486;SDS011;2256;48.740;9.106;2023-05-10T09:26:31;1.13;;;1.00;;
4486;SDS011;2256;48.740;9.106;2023-05-10T09:28:59;0.90;;;0.90;;
4486;SDS011;2256;48.740;9.106;2023-05-10T09:34:11;1.10;;;0.90;;
4486;SDS011;2256;48.740;9.106;2023-05-10T09:36:50;1.30;;;1.20;;
4486;SDS011;2256;48.740;9.106;2023-05-10T09:39:17;0.83;;;0.83;;
4486;SDS011;2256;48.740;9.106;2023-05-10T09:41:44;2.97;;;1.00;;
4486;SDS011;2256;48.740;9.106;2023-05-10T09:44:14;0.90;;;0.90;;
4486;SDS011;2256;48.740;9.106;2023-05-10T09:46:48;0.80;;;0.80;;
4486;SDS011;2256;48.740;9.106;2023-05-10T09:49:15;1.40;;;1.00;;
4486;SDS011;2256;48.740;9.106;2023-05-10T09:51:42;1.90;;;1.00;;
4486;SDS011;2256;48.740;9.106;2023-05-10T09:54:09;0.80;;;0.80;;
4486;SDS011;2256;48.740;9.106;2023-05-10T09:56:37;0.97;;;0.87;;
4486;SDS011;2256;48.740;9.106;2023-05-10T09:59:05;0.80;;;0.80;;
4486;SDS011;2256;48.740;9.106;2023-05-10T10:01:34;0.90;;;0.90;;
4486;SDS011;2256;48.740;9.106;2023-05-10T10:04:02;0.80;;;0.80;;
4486;SDS011;2256;48.740;9.106;2023-05-10T10:06:34;0.80;;;0.80;;
4486;SDS011;2256;48.740;9.106;2023-05-10T10:09:02;0.90;;;0.90;;
4486;SDS011;2256;48.740;9.106;2023-05-10T10:11:29;11.73;;;1.30;;
4486;SDS011;2256;48.740;9.106;2023-05-10T10:13:56;1.00;;;1.00;;
4486;SDS011;2256;48.740;9.106;2023-05-10T10:16:23;0.97;;;0.97;;
4486;SDS011;2256;48.740;9.106;2023-05-10T10:18:52;0.80;;;0.80;;
4486;SDS011;2256;48.740;9.106;2023-05-10T10:21:19;0.80;;;0.80;;
4486;SDS011;2256;48.740;9.106;2023-05-10T10:23:46;0.70;;;0.70;;
4486;SDS011;2256;48.740;9.106;2023-05-10T10:26:13;1.13;;;0.90;;
4486;SDS011;2256;48.740;9.106;2023-05-10T10:28:44;0.77;;;0.77;;
4486;SDS011;2256;48.740;9.106;2023-05-10T10:31:21;0.80;;;0.80;;
4486;SDS011;2256;48.740;9.106;2023-05-10T10:33:58;1.00;;;0.90;;
4486;SDS011;2256;48.740;9.106;2023-05-10T10:36:29;3.17;;;0.80;;
4486;SDS011;2256;48.740;9.106;2023-05-10T10:38:58;0.80;;;0.80;;
4486;SDS011;2256;48.740;9.106;2023-05-10T10:41:27;0.80;;;0.80;;
4486;SDS011;2256;48.740;9.106;2023-05-10T10:47:00;1.10;;;0.90;;
4486;SDS011;2256;48.740;9.106;2023-05-10T10:49:49;1.00;;;0.80;;
4486;SDS011;2256;48.740;9.106;2023-05-10T10:52:21;0.80;;;0.80;;
4486;SDS011;2256;48.740;9.106;2023-05-10T10:54:54;0.90;;;0.90;;
4486;SDS011;2256;48.740;9.106;2023-05-10T10:57:24;0.90;;;0.80;;
4486;SDS011;2256;48.740;9.106;2023-05-10T10:59:53;0.90;;;0.80;;
4486;SDS011;2256;48.740;9.106;2023-05-10T11:02:42;0.80;;;0.80;;
4486;SDS011;2256;48.740;9.106;2023-05-10T11:08:13;4.40;;;1.20;;
4486;SDS011;2256;48.740;9.106;2023-05-10T11:13:33;1.67;;;0.90;;
4486;SDS011;2256;48.740;9.106;2023-05-10T11:16:10;3.63;;;1.30;;
4486;SDS011;2256;48.740;9.106;2023-05-10T11:18:39;0.90;;;0.70;;
4486;SDS011;2256;48.740;9.106;2023-05-10T11:21:09;0.70;;;0.70;;
4486;SDS011;2256;48.740;9.106;2023-05-10T11:26:21;0.97;;;0.87;;
4486;SDS011;2256;48.740;9.106;2023-05-10T11:28:51;0.90;;;0.80;;
4486;SDS011;2256;48.740;9.106;2023-05-10T11:31:19;0.90;;;0.90;;
4486;SDS011;2256;48.740;9.106;2023-05-10T11:33:47;7.10;;;0.90;;
4486;SDS011;2256;48.740;9.106;2023-05-10T11:36:16;4.30;;;1.07;;
4486;SDS011;2256;48.740;9.106;2023-05-10T11:38:44;0.90;;;0.90;;
4486;SDS011;2256;48.740;9.106;2023-05-10T11:41:11;0.90;;;0.90;;
4486;SDS011;2256;48.740;9.106;2023-05-10T11:43:39;1.17;;;0.97;;
4486;SDS011;2256;48.740;9.106;2023-05-10T11:46:07;1.27;;;1.17;;
4486;SDS011;2256;48.740;9.106;2023-05-10T11:48:35;1.37;;;1.10;;
4486;SDS011;2256;48.740;9.106;2023-05-10T11:51:02;1.47;;;0.80;;
4486;SDS011;2256;48.740;9.106;2023-05-10T11:53:31;2.07;;;1.20;;
4486;SDS011;2256;48.740;9.106;2023-05-10T11:56:02;1.13;;;1.07;;
4486;SDS011;2256;48.740;9.106;2023-05-10T11:58:30;1.00;;;0.90;;
4486;SDS011;2256;48.740;9.106;2023-05-10T12:00:57;1.20;;;1.00;;
4486;SDS011;2256;48.740;9.106;2023-05-10T12:03:24;0.90;;;0.90;;
4486;SDS011;2256;48.740;9.106;2023-05-10T12:05:51;0.80;;;0.80;;
4486;SDS011;2256;48.740;9.106;2023-05-10T12:08:20;2.03;;;1.00;;
4486;SDS011;2256;48.740;9.106;2023-05-10T12:10:49;1.17;;;1.00;;
4486;SDS011;2256;48.740;9.106;2023-05-10T12:13:16;1.20;;;0.90;;
4486;SDS011;2256;48.740;9.106;2023-05-10T12:15:45;1.43;;;1.00;;
4486;SDS011;2256;48.740;9.106;2023-05-10T12:18:13;1.47;;;1.03;;
4486;SDS011;2256;48.740;9.106;2023-05-10T12:20:40;1.10;;;1.00;;
4486;SDS011;2256;48.740;9.106;2023-05-10T12:23:08;1.20;;;1.10;;
4486;SDS011;2256;48.740;9.106;2023-05-10T12:25:36;1.30;;;1.20;;
4486;SDS011;2256;48.740;9.106;2023-05-10T12:28:05;1.43;;;1.00;;
4486;SDS011;2256;48.740;9.106;2023-05-10T12:30:34;1.37;;;1.20;;
4486;SDS011;2256;48.740;9.106;2023-05-10T12:33:02;2.00;;;1.10;;
4486;SDS011;2256;48.740;9.106;2023-05-10T12:35:38;2.67;;;1.10;;
4486;SDS011;2256;48.740;9.106;2023-05-10T12:38:24;1.00;;;1.00;;
4486;SDS011;2256;48.740;9.106;2023-05-10T12:40:52;0.90;;;0.90;;
4486;SDS011;2256;48.740;9.106;2023-05-10T12:43:20;1.73;;;0.90;;
4486;SDS011;2256;48.740;9.106;2023-05-10T12:45:47;1.37;;;1.27;;
4486;SDS011;2256;48.740;9.106;2023-05-10T12:48:14;1.27;;;1.17;;
4486;SDS011;2256;48.740;9.106;2023-05-10T12:50:41;1.57;;;1.37;;
4486;SDS011;2256;48.740;9.106;2023-05-10T12:53:08;1.77;;;1.20;;
4486;SDS011;2256;48.740;9.106;2023-05-10T12:55:35;12.67;;;1.30;;
4486;SDS011;2256;48.740;9.106;2023-05-10T12:58:02;1.30;;;1.10;;
4486;SDS011;2256;48.740;9.106;2023-05-10T13:00:30;1.50;;;1.40;;
4486;SDS011;2256;48.740;9.106;2023-05-10T13:02:56;1.23;;;1.10;;
4486;SDS011;2256;48.740;9.106;2023-05-10T13:05:23;3.27;;;1.30;;
4486;SDS011;2256;48.740;9.106;2023-05-10T13:07:50;1.00;;;0.90;;
4486;SDS011;2256;48.740;9.106;2023-05-10T13:10:20;1.87;;;0.90;;
4486;SDS011;2256;48.740;9.106;2023-05-10T13:12:48;1.10;;;1.00;;
4486;SDS011;2256;48.740;9.106;2023-05-10T13:15:15;0.97;;;0.97;;
4486;SDS011;2256;48.740;9.106;2023-05-10T13:17:46;2.30;;;0.90;;
4486;SDS011;2256;48.740;9.106;2023-05-10T13:20:13;1.20;;;1.10;;
4486;SDS011;2256;48.740;9.106;2023-05-10T13:22:43;1.00;;;1.00;;
4486;SDS011;2256;48.740;9.106;2023-05-10T13:25:10;1.10;;;0.97;;
4486;SDS011;2256;48.740;9.106;2023-05-10T13:27:38;1.27;;;1.17;;
4486;SDS011;2256;48.740;9.106;2023-05-10T13:30:05;1.90;;;1.10;;
4486;SDS011;2256;48.740;9.106;2023-05-10T13:32:33;1.40;;;1.10;;
4486;SDS011;2256;48.740;9.106;2023-05-10T13:35:02;3.20;;;1.00;;
4486;SDS011;2256;48.740;9.106;2023-05-10T13:37:29;1.30;;;1.20;;
4486;SDS011;2256;48.740;9.106;2023-05-10T13:39:58;3.67;;;1.10;;
4486;SDS011;2256;48.740;9.106;2023-05-10T13:42:25;1.07;;;1.00;;
4486;SDS011;2256;48.740;9.106;2023-05-10T13:44:52;1.10;;;0.97;;
4486;SDS011;2256;48.740;9.106;2023-05-10T13:47:18;3.37;;;1.00;;
4486;SDS011;2256;48.740;9.106;2023-05-10T13:49:46;2.00;;;1.10;;
4486;SDS011;2256;48.740;9.106;2023-05-10T13:52:15;2.03;;;1.20;;
4486;SDS011;2256;48.740;9.106;2023-05-10T13:54:41;1.20;;;1.10;;
4486;SDS011;2256;48.740;9.106;2023-05-10T13:57:08;2.57;;;1.20;;
4486;SDS011;2256;48.740;9.106;2023-05-10T13:59:37;1.93;;;1.77;;
4486;SDS011;2256;48.740;9.106;2023-05-10T14:02:04;1.27;;;1.10;;
4486;SDS011;2256;48.740;9.106;2023-05-10T14:04:31;0.90;;;0.90;;
4486;SDS011;2256;48.740;9.106;2023-05-10T14:07:00;1.00;;;1.00;;
4486;SDS011;2256;48.740;9.106;2023-05-10T14:09:28;1.93;;;0.93;;
4486;SDS011;2256;48.740;9.106;2023-05-10T14:11:55;1.50;;;0.90;;
4486;SDS011;2256;48.740;9.106;2023-05-10T14:14:22;1.10;;;1.00;;
4486;SDS011;2256;48.740;9.106;2023-05-10T14:16:49;1.00;;;1.00;;
4486;SDS011;2256;48.740;9.106;2023-05-10T14:19:16;1.37;;;1.20;;
4486;SDS011;2256;48.740;9.106;2023-05-10T14:21:43;1.30;;;1.20;;
4486;SDS011;2256;48.740;9.106;2023-05-10T14:24:10;1.37;;;1.10;;
4486;SDS011;2256;48.740;9.106;2023-05-10T14:26:38;1.27;;;1.17;;
4486;SDS011;2256;48.740;9.106;2023-05-10T14:29:05;1.80;;;1.20;;
4486;SDS011;2256;48.740;9.106;2023-05-10T14:31:31;1.20;;;1.10;;
4486;SDS011;2256;48.740;9.106;2023-05-10T14:33:58;1.00;;;1.00;;
4486;SDS011;2256;48.740;9.106;2023-05-10T14:36:25;1.43;;;1.20;;
4486;SDS011;2256;48.740;9.106;2023-05-10T14:38:52;1.00;;;0.90;;
4486;SDS011;2256;48.740;9.106;2023-05-10T14:41:19;1.23;;;1.13;;
4486;SDS011;2256;48.740;9.106;2023-05-10T14:43:47;2.30;;;1.50;;
4486;SDS011;2256;48.740;9.106;2023-05-10T14:46:14;1.00;;;1.00;;
4486;SDS011;2256;48.740;9.106;2023-05-10T14:48:41;1.70;;;1.00;;
4486;SDS011;2256;48.740;9.106;2023-05-10T14:51:08;1.10;;;1.03;;
4486;SDS011;2256;48.740;9.106;2023-05-10T14:53:36;1.70;;;1.60;;
4486;SDS011;2256;48.740;9.106;2023-05-10T14:56:02;1.20;;;1.10;;
4486;SDS011;2256;48.740;9.106;2023-05-10T14:58:29;0.83;;;0.83;;
4486;SDS011;2256;48.740;9.106;2023-05-10T15:00:57;1.10;;;1.00;;
4486;SDS011;2256;48.740;9.106;2023-05-10T15:03:24;1.53;;;1.10;;
4486;SDS011;2256;48.740;9.106;2023-05-10T15:05:51;2.07;;;1.10;;
4486;SDS011;2256;48.740;9.106;2023-05-10T15:08:18;1.20;;;1.10;;
4486;SDS011;2256;48.740;9.106;2023-05-10T15:10:46;1.13;;;1.03;;
4486;SDS011;2256;48.740;9.106;2023-05-10T15:13:13;1.17;;;1.07;;
4486;SDS011;2256;48.740;9.106;2023-05-10T15:15:40;1.30;;;1.20;;
4486;SDS011;2256;48.740;9.106;2023-05-10T15:18:08;1.20;;;1.10;;
4486;SDS011;2256;48.740;9.106;2023-05-10T15:20:35;1.77;;;1.10;;
4486;SDS011;2256;48.740;9.106;2023-05-10T15:23:02;0.97;;;0.97;;
4486;SDS011;2256;48.740;9.106;2023-05-10T15:25:29;1.00;;;1.00;;
4486;SDS011;2256;48.740;9.106;2023-05-10T15:27:56;2.53;;;1.03;;
4486;SDS011;2256;48.740;9.106;2023-05-10T15:30:23;1.67;;;1.10;;
4486;SDS011;2256;48.740;9.106;2023-05-10T15:32:49;0.87;;;0.87;;
4486;SDS011;2256;48.740;9.106;2023-05-10T15:35:17;1.63;;;1.00;;
4486;SDS011;2256;48.740;9.106;2023-05-10T15:37:45;0.80;;;0.80;;
4486;SDS011;2256;48.740;9.106;2023-05-10T15:40:13;1.33;;;1.20;;